Time;durP1;ratioP1;P1;durP2;ratioP2;P2;SDS_P1;SDS_P2;PMS_P1;PMS_P2;Temp;Humidity;BMP_temperature;BMP_pressure;BME280_temperature;BME280_humidity;BME280_pressure;Samples;Min_cycle;Max_cycle;Signal;HPM_P1;HPM_P2
2023/06/15 04:30:24;;;;;;;22.38;13.73;;;18.70;68.00;;;;;;5921325;23;20028;-76
2023/06/15 04:32:59;;;;;;;22.05;13.77;;;18.70;68.00;;;;;;4917672;29;20100;-76
2023/06/15 04:35:29;;;;;;;21.33;14.45;;;18.70;68.00;;;;;;4930111;29;20147;-77
2023/06/15 04:37:58;;;;;;;23.38;13.82;;;18.70;68.20;;;;;;4950909;29;20535;-77
2023/06/15 04:40:26;;;;;;;23.77;14.23;;;18.70;68.40;;;;;;4920492;29;20031;-76
2023/06/15 04:42:53;;;;;;;23.88;14.15;;;18.70;68.30;;;;;;4940308;29;20036;-78
2023/06/15 04:45:19;;;;;;;27.10;15.57;;;18.70;68.30;;;;;;4937440;29;20730;-77
2023/06/15 04:47:46;;;;;;;21.98;14.35;;;18.60;68.40;;;;;;4936674;29;20023;-76
2023/06/15 04:50:13;;;;;;;22.08;14.90;;;18.60;68.40;;;;;;4936020;29;20438;-77
2023/06/15 04:52:40;;;;;;;24.02;15.18;;;18.60;68.50;;;;;;4936381;29;20028;-75
2023/06/15 04:55:06;;;;;;;25.30;14.32;;;18.60;68.50;;;;;;4935911;29;20513;-74
2023/06/15 04:57:32;;;;;;;26.00;15.55;;;18.60;68.80;;;;;;4920590;29;20060;-79
2023/06/15 04:59:57;;;;;;;24.98;14.75;;;18.60;68.80;;;;;;4919766;29;20436;-75
2023/06/15 05:02:23;;;;;;;23.52;14.77;;;18.70;68.70;;;;;;4936870;29;20155;-75
2023/06/15 05:04:48;;;;;;;24.95;15.45;;;18.70;68.50;;;;;;4943177;29;20465;-75
2023/06/15 05:07:14;;;;;;;24.98;16.00;;;18.70;68.60;;;;;;4932910;29;20844;-75
2023/06/15 05:09:40;;;;;;;23.23;15.23;;;18.80;68.40;;;;;;4935873;29;20410;-77
2023/06/15 05:12:06;;;;;;;24.00;15.52;;;18.70;68.80;;;;;;4939361;29;20048;-75
2023/06/15 05:14:32;;;;;;;25.33;14.93;;;18.80;68.70;;;;;;4923116;29;20084;-76
2023/06/15 05:17:03;;;;;;;23.30;15.60;;;18.80;68.60;;;;;;4940821;29;20027;-75
2023/06/15 05:19:31;;;;;;;24.73;15.55;;;18.80;68.50;;;;;;4945104;29;20529;-75
2023/06/15 05:22:01;;;;;;;25.98;16.15;;;18.80;68.40;;;;;;4958672;29;20059;-74
2023/06/15 05:24:27;;;;;;;27.55;17.27;;;18.80;68.30;;;;;;4922898;29;20032;-79
2023/06/15 05:26:53;;;;;;;23.75;15.77;;;18.80;68.60;;;;;;4922949;29;20394;-76
2023/06/15 05:29:20;;;;;;;28.58;16.52;;;18.80;68.50;;;;;;4940201;29;20075;-76
2023/06/15 05:31:46;;;;;;;22.85;16.30;;;18.90;68.90;;;;;;4921321;29;20167;-75
2023/06/15 05:34:11;;;;;;;26.17;16.77;;;18.90;69.00;;;;;;4939643;29;20028;-75
2023/06/15 05:36:37;;;;;;;25.17;16.90;;;18.90;68.90;;;;;;4926039;29;20038;-75
2023/06/15 05:39:03;;;;;;;29.77;16.42;;;18.90;68.60;;;;;;4938827;29;20490;-75
2023/06/15 05:41:29;;;;;;;28.77;17.85;;;19.00;68.60;;;;;;4939506;29;20536;-76
2023/06/15 05:43:55;;;;;;;24.80;16.65;;;19.00;68.50;;;;;;4923264;29;20558;-76
2023/06/15 05:46:20;;;;;;;26.23;15.95;;;19.00;68.40;;;;;;4922911;29;20039;-77
2023/06/15 05:48:46;;;;;;;24.27;17.27;;;19.00;68.80;;;;;;4939454;29;20562;-77
2023/06/15 05:51:11;;;;;;;27.90;16.52;;;19.00;68.80;;;;;;4940243;29;20467;-77
2023/06/15 05:53:37;;;;;;;27.15;17.58;;;19.00;68.50;;;;;;4939229;29;20387;-77
2023/06/15 05:56:03;;;;;;;26.58;16.92;;;19.00;68.80;;;;;;4938448;29;20030;-78
2023/06/15 05:58:29;;;;;;;26.30;16.63;;;19.00;68.60;;;;;;4939879;29;20035;-78
2023/06/15 06:00:55;;;;;;;29.75;17.83;;;19.10;68.60;;;;;;4939851;29;20517;-77
2023/06/15 06:03:21;;;;;;;27.70;18.35;;;19.10;68.70;;;;;;4939778;29;20059;-77
2023/06/15 06:05:47;;;;;;;28.10;18.08;;;19.10;68.70;;;;;;4929148;29;20043;-77
2023/06/15 06:08:12;;;;;;;27.15;18.05;;;19.20;68.50;;;;;;4939654;29;20019;-77
2023/06/15 06:10:38;;;;;;;28.15;16.73;;;19.20;68.70;;;;;;4943545;29;20059;-77
2023/06/15 06:13:03;;;;;;;30.90;17.85;;;19.20;68.70;;;;;;4953755;29;20900;-77
2023/06/15 06:15:29;;;;;;;27.27;17.58;;;19.30;68.60;;;;;;4939626;29;20058;-77
2023/06/15 06:17:55;;;;;;;27.33;16.30;;;19.30;68.60;;;;;;4922442;29;20123;-77
2023/06/15 06:20:21;;;;;;;29.30;17.27;;;19.40;68.40;;;;;;4939446;29;20038;-77
2023/06/15 06:22:46;;;;;;;30.02;17.15;;;19.40;68.60;;;;;;4938510;29;20040;-77
2023/06/15 06:25:12;;;;;;;30.35;17.70;;;19.50;68.40;;;;;;4939485;29;20036;-77
2023/06/15 06:27:38;;;;;;;27.92;18.20;;;19.50;67.70;;;;;;4940233;29;20561;-76
2023/06/15 06:30:04;;;;;;;28.77;18.35;;;19.60;68.10;;;;;;4921758;29;20074;-76
2023/06/15 06:32:29;;;;;;;29.42;17.45;;;19.60;68.40;;;;;;4921871;29;20273;-76
2023/06/15 06:34:55;;;;;;;30.30;17.75;;;19.60;68.40;;;;;;4926587;29;20123;-75
2023/06/15 06:37:22;;;;;;;29.55;18.40;;;19.70;68.20;;;;;;4946791;29;20020;-75
2023/06/15 06:39:47;;;;;;;25.77;16.67;;;19.70;68.20;;;;;;4928865;29;20123;-75
2023/06/15 06:42:13;;;;;;;31.23;17.50;;;19.80;68.30;;;;;;4947947;29;20054;-75
2023/06/15 06:44:39;;;;;;;25.95;16.98;;;19.90;68.00;;;;;;4946588;29;20103;-75
2023/06/15 06:47:05;;;;;;;27.40;17.30;;;19.90;67.80;;;;;;4939439;29;20027;-75
2023/06/15 06:49:31;;;;;;;25.20;16.23;;;20.00;67.70;;;;;;4948490;29;20050;-77
2023/06/15 06:51:57;;;;;;;28.33;16.08;;;20.00;68.00;;;;;;4938523;29;20163;-74
2023/06/15 06:54:22;;;;;;;25.65;16.13;;;20.10;67.90;;;;;;4938019;29;20032;-73
2023/06/15 06:56:48;;;;;;;27.88;17.25;;;20.10;67.60;;;;;;4947347;29;20015;-74
2023/06/15 06:59:13;;;;;;;22.85;15.75;;;20.30;67.20;;;;;;4948298;29;20106;-74
2023/06/15 07:01:39;;;;;;;23.77;16.08;;;20.30;66.90;;;;;;4948515;29;20027;-74
2023/06/15 07:04:05;;;;;;;22.95;15.48;;;20.30;67.50;;;;;;4946133;29;20035;-73
2023/06/15 07:06:31;;;;;;;27.98;15.90;;;20.40;67.30;;;;;;4936506;29;20039;-74
2023/06/15 07:08:56;;;;;;;25.63;16.17;;;20.40;67.80;;;;;;4924138;29;20035;-74
2023/06/15 07:11:22;;;;;;;24.02;14.88;;;20.50;67.20;;;;;;4947008;29;20039;-74
2023/06/15 07:13:48;;;;;;;25.08;16.00;;;20.70;67.20;;;;;;4944147;29;20059;-75
2023/06/15 07:16:13;;;;;;;23.30;14.90;;;20.80;66.30;;;;;;4935779;29;20514;-74
2023/06/15 07:18:39;;;;;;;24.42;14.77;;;20.80;66.30;;;;;;4939377;29;20058;-76
2023/06/15 07:21:05;;;;;;;22.33;15.32;;;21.00;66.20;;;;;;4937289;29;20422;-77
2023/06/15 07:23:30;;;;;;;20.05;14.65;;;21.10;65.80;;;;;;4937981;29;20510;-75
2023/06/15 07:25:56;;;;;;;19.30;13.50;;;21.20;66.00;;;;;;4937288;29;20410;-79
2023/06/15 07:28:21;;;;;;;21.85;15.30;;;21.30;65.30;;;;;;4938021;29;20039;-79
2023/06/15 07:30:51;;;;;;;21.35;13.85;;;21.50;65.30;;;;;;4938181;29;20047;-78
2023/06/15 07:33:17;;;;;;;20.00;13.73;;;21.70;65.00;;;;;;4948866;29;20031;-82
2023/06/15 07:35:43;;;;;;;20.98;13.45;;;21.80;64.40;;;;;;4947102;29;20792;-79
2023/06/15 07:38:09;;;;;;;18.33;13.15;;;21.80;64.30;;;;;;4957087;29;20024;-80
2023/06/15 07:40:34;;;;;;;21.65;13.13;;;22.00;64.20;;;;;;4957292;29;20031;-79
2023/06/15 07:43:00;;;;;;;19.77;12.82;;;22.50;63.70;;;;;;4951797;29;20031;-81
2023/06/15 07:45:26;;;;;;;20.05;13.15;;;23.30;60.60;;;;;;4923951;29;20045;-78
2023/06/15 07:47:52;;;;;;;16.80;11.63;;;24.70;57.40;;;;;;4942458;29;20047;-81
2023/06/15 07:50:18;;;;;;;20.73;12.43;;;26.70;52.50;;;;;;4920602;29;20100;-76
2023/06/15 07:52:43;;;;;;;15.02;11.60;;;28.90;47.40;;;;;;4945579;29;20067;-77
2023/06/15 07:55:09;;;;;;;15.75;11.95;;;30.60;43.00;;;;;;4920382;29;20028;-77
2023/06/15 07:57:35;;;;;;;13.25;11.25;;;31.90;40.90;;;;;;4921594;29;20418;-76
2023/06/15 08:00:05;;;;;;;15.55;11.98;;;33.00;38.90;;;;;;4937492;29;20725;-75
2023/06/15 08:02:30;;;;;;;16.50;10.85;;;33.70;37.20;;;;;;4935152;29;20038;-75
2023/06/15 08:04:56;;;;;;;12.18;10.88;;;34.30;36.40;;;;;;4935494;29;20550;-76
2023/06/15 08:07:22;;;;;;;12.57;10.80;;;34.80;35.40;;;;;;4931724;29;20115;-75
2023/06/15 08:09:47;;;;;;;12.68;11.23;;;35.20;34.70;;;;;;4933858;29;20099;-81
2023/06/15 08:12:13;;;;;;;11.48;10.38;;;35.40;34.30;;;;;;4945052;29;20056;-76
2023/06/15 08:14:39;;;;;;;13.65;10.77;;;35.80;33.90;;;;;;4935104;29;20061;-75
2023/06/15 08:17:05;;;;;;;13.13;10.80;;;36.10;33.20;;;;;;4933771;29;20402;-76
2023/06/15 08:19:31;;;;;;;11.70;10.02;;;36.70;32.30;;;;;;4920628;29;20530;-75
2023/06/15 08:21:56;;;;;;;13.02;10.07;;;37.00;31.50;;;;;;4918444;29;20024;-75
2023/06/15 08:24:22;;;;;;;12.18;10.30;;;37.40;31.20;;;;;;4932164;29;20035;-75
2023/06/15 08:26:50;;;;;;;11.88;9.77;;;37.40;30.60;;;;;;4921062;29;20504;-75
2023/06/15 08:29:16;;;;;;;9.88;8.68;;;36.90;31.60;;;;;;4934528;29;20028;-75
2023/06/15 08:31:41;;;;;;;11.07;8.65;;;37.10;31.80;;;;;;4928451;29;20044;-77
2023/06/15 08:34:08;;;;;;;12.85;9.27;;;35.50;33.80;;;;;;4934872;29;20027;-77
2023/06/15 08:36:33;;;;;;;12.38;9.63;;;34.90;34.30;;;;;;4937204;29;20020;-78
2023/06/15 08:39:00;;;;;;;12.63;9.68;;;34.40;34.80;;;;;;4935359;29;20020;-78
2023/06/15 08:41:27;;;;;;;11.20;9.05;;;34.90;34.90;;;;;;4936548;29;20044;-75
2023/06/15 08:43:54;;;;;;;10.93;9.00;;;35.30;34.10;;;;;;4934978;29;20063;-78
2023/06/15 08:46:22;;;;;;;10.57;9.25;;;36.00;33.90;;;;;;4934123;29;20106;-77
2023/06/15 08:48:51;;;;;;;10.60;8.35;;;36.50;33.10;;;;;;4934478;29;20110;-77
2023/06/15 08:51:17;;;;;;;10.95;9.43;;;36.80;32.00;;;;;;4936963;29;20020;-77
2023/06/15 08:53:45;;;;;;;9.77;8.25;;;36.90;31.70;;;;;;4933081;29;20505;-78
2023/06/15 08:56:11;;;;;;;10.20;8.40;;;37.10;32.60;;;;;;4935329;29;20451;-78
2023/06/15 08:58:38;;;;;;;10.85;7.60;;;37.30;31.90;;;;;;4935961;29;20190;-77
2023/06/15 09:01:05;;;;;;;12.43;8.60;;;37.30;31.50;;;;;;4933262;29;20035;-78
2023/06/15 09:03:33;;;;;;;10.63;7.75;;;37.50;31.50;;;;;;4938282;29;20083;-77
2023/06/15 09:06:00;;;;;;;10.57;7.72;;;37.70;31.40;;;;;;4938375;29;20399;-77
2023/06/15 09:08:26;;;;;;;9.45;8.20;;;37.90;31.20;;;;;;4939727;29;20035;-78
2023/06/15 09:11:05;;;;;;;10.60;8.30;;;38.00;30.30;;;;;;4939229;29;20478;-77
2023/06/15 09:13:33;;;;;;;10.90;9.00;;;38.10;30.30;;;;;;4939513;29;20031;-78
2023/06/15 09:16:00;;;;;;;8.32;7.53;;;38.20;29.90;;;;;;4938880;29;20024;-77
2023/06/15 09:18:26;;;;;;;9.50;7.25;;;38.40;30.80;;;;;;4939128;29;20500;-77
2023/06/15 09:20:52;;;;;;;9.52;7.95;;;38.60;29.90;;;;;;4951384;29;20035;-77
2023/06/15 09:23:18;;;;;;;10.55;7.88;;;38.50;29.80;;;;;;4944979;29;20055;-79
2023/06/15 09:25:54;;;;;;;10.38;7.78;;;38.80;29.80;;;;;;4940413;29;20038;-80
2023/06/15 09:28:24;;;;;;;9.38;8.00;;;38.90;29.40;;;;;;4922385;29;20091;-78
2023/06/15 09:30:59;;;;;;;9.20;7.43;;;39.10;29.20;;;;;;4938526;29;20059;-78
2023/06/15 09:33:25;;;;;;;8.52;7.35;;;39.30;29.20;;;;;;4940469;29;20043;-78
2023/06/15 09:36:06;;;;;;;9.02;7.35;;;39.40;28.60;;;;;;4940107;29;20047;-79
2023/06/15 09:38:33;;;;;;;;;;;39.50;29.40;;;;;;4937833;29;20094;-76
2023/06/15 09:41:03;;;;;;;11.50;7.28;;;39.60;27.70;;;;;;4938906;29;19967;-76
2023/06/15 09:43:36;;;;;;;10.43;7.40;;;39.10;28.70;;;;;;4939361;29;20044;-76
2023/06/15 09:46:09;;;;;;;9.65;7.18;;;39.10;29.30;;;;;;4940293;29;20038;-76
2023/06/15 09:48:38;;;;;;;10.20;8.10;;;39.30;29.10;;;;;;4939038;29;20039;-77
2023/06/15 09:51:04;;;;;;;8.65;7.05;;;39.50;27.30;;;;;;4939945;29;20035;-78
2023/06/15 09:53:31;;;;;;;9.73;8.60;;;39.50;27.40;;;;;;4940333;29;20024;-78
2023/06/15 09:55:59;;;;;;;7.85;6.32;;;39.40;27.40;;;;;;4941551;29;20506;-76
2023/06/15 09:58:25;;;;;;;7.22;6.53;;;39.60;28.30;;;;;;4923271;29;20032;-79
2023/06/15 10:00:57;;;;;;;8.13;7.43;;;39.60;28.00;;;;;;4922611;29;20036;-77
2023/06/15 10:03:24;;;;;;;11.32;6.63;;;39.70;28.80;;;;;;4922526;29;20091;-76
2023/06/15 10:05:54;;;;;;;11.73;7.28;;;39.50;27.90;;;;;;4939157;29;20038;-76
2023/06/15 10:08:24;;;;;;;9.90;6.70;;;39.50;28.40;;;;;;4939013;29;20074;-76
2023/06/15 10:10:51;;;;;;;7.70;6.68;;;39.60;29.60;;;;;;4934677;29;20062;-77
2023/06/15 10:13:47;;;;;;;8.88;7.15;;;39.60;28.40;;;;;;4939354;29;20028;-76
2023/06/15 10:16:15;;;;;;;10.55;6.53;;;39.60;29.00;;;;;;4907674;29;20419;-76
2023/06/15 10:18:42;;;;;;;8.65;6.57;;;39.60;28.30;;;;;;4935376;29;20083;-76
2023/06/15 10:21:14;;;;;;;9.40;6.72;;;39.50;27.70;;;;;;4939497;29;20395;-76
2023/06/15 10:23:42;;;;;;;7.47;6.78;;;39.30;28.40;;;;;;4936585;29;20092;-78
2023/06/15 10:26:11;;;;;;;7.85;7.03;;;39.10;28.30;;;;;;4922625;29;20035;-76
2023/06/15 10:29:04;;;;;;;8.88;6.63;;;38.90;27.20;;;;;;4938352;29;20513;-76
2023/06/15 10:31:39;;;;;;;8.55;6.47;;;38.40;28.30;;;;;;4923011;29;20063;-79
2023/06/15 10:34:12;;;;;;;13.98;6.85;;;38.10;29.00;;;;;;4939638;29;20020;-75
2023/06/15 10:36:53;;;;;;;7.30;5.72;;;37.90;29.40;;;;;;4941351;29;20024;-76
2023/06/15 10:39:26;;;;;;;9.15;6.22;;;37.80;30.10;;;;;;4922242;29;20052;-77
2023/06/15 10:41:55;;;;;;;7.38;6.60;;;37.30;30.60;;;;;;4937902;29;20050;-75
2023/06/15 10:44:21;;;;;;;8.95;6.43;;;36.80;31.20;;;;;;4924585;29;20118;-76
2023/06/15 10:46:46;;;;;;;7.80;6.75;;;36.20;31.50;;;;;;4942662;29;20074;-77
2023/06/15 10:49:13;;;;;;;7.53;6.65;;;35.60;31.90;;;;;;4938675;29;20395;-74
2023/06/15 10:51:50;;;;;;;9.38;6.60;;;35.30;32.50;;;;;;4921451;29;20055;-75
2023/06/15 10:54:24;;;;;;;7.85;6.40;;;34.90;33.70;;;;;;4918962;29;20081;-75
2023/06/15 10:56:51;;;;;;;8.68;6.78;;;34.80;33.40;;;;;;4918627;29;20677;-74
2023/06/15 10:59:41;;;;;;;7.57;6.22;;;34.50;33.60;;;;;;4930563;29;20094;-73
2023/06/15 11:02:36;;;;;;;9.60;7.18;;;34.30;32.40;;;;;;4936855;29;20023;-73
2023/06/15 11:05:08;;;;;;;10.20;6.38;;;34.00;33.00;;;;;;4937848;29;20054;-73
2023/06/15 11:07:43;;;;;;;9.93;6.60;;;33.90;33.60;;;;;;4937196;29;20494;-74
2023/06/15 11:10:15;;;;;;;8.82;6.80;;;33.80;33.40;;;;;;4935018;29;20024;-73
2023/06/15 11:12:43;;;;;;;7.45;6.22;;;33.80;34.00;;;;;;4916113;29;20146;-75
2023/06/15 11:15:12;;;;;;;8.30;6.25;;;33.70;33.90;;;;;;4929941;29;20125;-73
2023/06/15 11:17:56;;;;;;;9.35;6.50;;;33.70;34.00;;;;;;4932510;29;20020;-73
2023/06/15 11:20:42;;;;;;;8.02;6.32;;;33.60;34.30;;;;;;4935723;29;20387;-74
2023/06/15 11:23:16;;;;;;;7.95;6.90;;;33.50;34.70;;;;;;4936378;29;20027;-73
2023/06/15 11:25:46;;;;;;;9.88;6.82;;;33.40;33.90;;;;;;4935911;29;20024;-74
2023/06/15 11:28:15;;;;;;;9.77;7.18;;;33.30;33.40;;;;;;4935779;29;20028;-76
2023/06/15 11:30:42;;;;;;;10.68;6.60;;;33.30;34.70;;;;;;4937622;29;20459;-74
2023/06/15 11:33:12;;;;;;;7.97;6.95;;;33.30;34.90;;;;;;4937670;29;20075;-74
2023/06/15 11:35:38;;;;;;;9.32;6.90;;;33.10;33.30;;;;;;4936978;29;20031;-74
2023/06/15 11:38:07;;;;;;;8.88;6.90;;;33.10;34.50;;;;;;4938117;29;20393;-74
2023/06/15 11:40:33;;;;;;;9.13;7.97;;;33.10;34.80;;;;;;4938126;29;20024;-73
2023/06/15 11:43:00;;;;;;;7.70;6.90;;;33.00;35.40;;;;;;4936398;29;20039;-73
2023/06/15 11:45:26;;;;;;;8.02;6.45;;;32.90;35.10;;;;;;4936406;29;20028;-73
2023/06/15 11:47:52;;;;;;;10.75;6.90;;;32.90;36.00;;;;;;4920404;29;20039;-73
2023/06/15 11:50:20;;;;;;;9.23;6.75;;;32.70;34.00;;;;;;4920453;29;20032;-74
2023/06/15 11:52:46;;;;;;;7.60;6.75;;;32.70;35.50;;;;;;4937251;29;20068;-74
2023/06/15 11:55:14;;;;;;;10.13;6.72;;;32.70;34.10;;;;;;4934205;29;20024;-74
2023/06/15 11:57:44;;;;;;;8.48;7.10;;;32.80;34.30;;;;;;4920611;29;20475;-74
2023/06/15 12:00:12;;;;;;;8.40;7.28;;;32.80;34.30;;;;;;4937105;29;20102;-74
2023/06/15 12:02:40;;;;;;;7.25;6.50;;;32.80;35.20;;;;;;4937702;29;20038;-74
2023/06/15 12:05:06;;;;;;;7.72;6.72;;;32.60;34.10;;;;;;4937880;29;20023;-74
2023/06/15 12:07:34;;;;;;;7.18;6.22;;;32.60;34.30;;;;;;4935564;29;20032;-73
2023/06/15 12:10:00;;;;;;;8.80;6.82;;;32.60;33.90;;;;;;4909840;29;20067;-74
2023/06/15 12:12:35;;;;;;;7.70;6.90;;;32.60;35.50;;;;;;4936508;29;20062;-74
2023/06/15 12:15:05;;;;;;;8.50;7.03;;;32.60;35.80;;;;;;4936048;29;20024;-76
2023/06/15 12:17:35;;;;;;;11.27;7.20;;;32.70;35.10;;;;;;4934953;29;20091;-75
2023/06/15 12:20:10;;;;;;;7.97;6.32;;;32.70;34.90;;;;;;4937758;29;20055;-74
2023/06/15 12:22:40;;;;;;;7.68;6.90;;;32.70;35.20;;;;;;4937427;29;20055;-74
2023/06/15 12:25:06;;;;;;;8.27;6.88;;;32.80;36.10;;;;;;4935531;29;20042;-74
2023/06/15 12:27:33;;;;;;;9.30;6.72;;;32.80;35.40;;;;;;4918478;29;20028;-74
2023/06/15 12:30:11;;;;;;;8.35;6.55;;;32.60;33.90;;;;;;4937209;29;20497;-75
2023/06/15 12:32:43;;;;;;;9.35;7.00;;;32.60;33.00;;;;;;4935989;29;20040;-73
2023/06/15 12:35:24;;;;;;;9.70;6.78;;;32.50;34.00;;;;;;4930015;29;20589;-73
2023/06/15 12:37:50;;;;;;;9.10;6.80;;;32.40;34.20;;;;;;4943586;29;20034;-74
2023/06/15 12:40:20;;;;;;;8.38;7.05;;;32.30;32.40;;;;;;4940265;29;20079;-74
2023/06/15 12:42:47;;;;;;;8.55;7.13;;;32.10;32.80;;;;;;4931047;29;20038;-73
2023/06/15 12:45:13;;;;;;;10.13;6.95;;;32.20;33.10;;;;;;4922218;29;20020;-74
2023/06/15 12:47:39;;;;;;;9.45;7.10;;;32.30;33.90;;;;;;4940902;29;20019;-74
2023/06/15 12:50:06;;;;;;;7.50;6.70;;;32.40;33.80;;;;;;4942609;29;20578;-74
2023/06/15 12:52:31;;;;;;;8.55;7.15;;;32.50;33.60;;;;;;4940385;29;20398;-76
2023/06/15 12:54:58;;;;;;;8.02;7.07;;;32.60;33.60;;;;;;4941017;29;20035;-78
2023/06/15 12:57:24;;;;;;;8.77;7.10;;;32.50;33.40;;;;;;4938519;29;20501;-75
2023/06/15 12:59:50;;;;;;;7.82;7.03;;;32.50;34.20;;;;;;4923070;29;20031;-76
2023/06/15 13:02:16;;;;;;;8.05;6.95;;;32.40;33.00;;;;;;4940204;29;20032;-76
2023/06/15 13:04:41;;;;;;;7.80;6.90;;;32.30;33.60;;;;;;4937829;29;20375;-75
2023/06/15 13:07:07;;;;;;;9.68;7.00;;;32.30;34.60;;;;;;4923367;29;20047;-75
2023/06/15 13:09:32;;;;;;;10.63;7.72;;;32.30;34.90;;;;;;4938383;29;20033;-75
2023/06/15 13:11:58;;;;;;;8.70;7.15;;;32.30;33.80;;;;;;4940908;29;20108;-75
2023/06/15 13:14:23;;;;;;;10.95;6.97;;;32.20;33.40;;;;;;4922955;29;20399;-75
2023/06/15 13:16:49;;;;;;;8.98;7.50;;;32.20;34.30;;;;;;4939873;29;20051;-75
2023/06/15 13:19:15;;;;;;;10.18;7.78;;;32.20;33.80;;;;;;4939919;29;20104;-75
2023/06/15 13:21:40;;;;;;;8.07;6.50;;;32.30;34.10;;;;;;4923547;29;20039;-75
2023/06/15 13:24:06;;;;;;;7.78;6.85;;;32.30;33.60;;;;;;4931602;29;20028;-75
2023/06/15 13:26:32;;;;;;;10.52;6.80;;;32.40;34.90;;;;;;4935687;29;20050;-75
2023/06/15 13:28:57;;;;;;;8.43;7.10;;;32.30;32.80;;;;;;4940094;29;20024;-75
2023/06/15 13:31:23;;;;;;;9.52;7.13;;;32.30;34.10;;;;;;4939540;29;20116;-75
2023/06/15 13:33:49;;;;;;;8.80;6.82;;;32.30;33.60;;;;;;4940225;29;20130;-75
2023/06/15 13:36:14;;;;;;;9.70;6.90;;;32.40;34.00;;;;;;4939229;29;20020;-75
2023/06/15 13:38:40;;;;;;;9.32;6.90;;;32.40;33.60;;;;;;4939903;29;20096;-75
2023/06/15 13:41:05;;;;;;;9.60;7.43;;;31.90;32.80;;;;;;4920092;29;20499;-75
2023/06/15 13:43:31;;;;;;;10.30;7.13;;;31.80;34.30;;;;;;4922367;29;20036;-75
2023/06/15 13:45:57;;;;;;;9.60;7.50;;;31.60;35.40;;;;;;4937329;29;20023;-75
2023/06/15 13:48:22;;;;;;;9.38;7.18;;;31.70;35.20;;;;;;4938992;29;20111;-75
2023/06/15 13:50:48;;;;;;;7.57;6.70;;;31.80;34.80;;;;;;4938384;29;20371;-75
2023/06/15 13:53:13;;;;;;;8.40;7.22;;;32.00;35.30;;;;;;4939839;29;20126;-75
2023/06/15 13:55:42;;;;;;;8.68;7.40;;;31.90;34.20;;;;;;4939563;29;20028;-75
2023/06/15 13:58:07;;;;;;;9.43;7.20;;;31.70;32.80;;;;;;4938421;29;20036;-75
2023/06/15 14:00:33;;;;;;;8.57;7.00;;;31.60;34.00;;;;;;4938844;29;20054;-75
2023/06/15 14:03:04;;;;;;;9.38;7.07;;;31.60;33.90;;;;;;4930253;29;20050;-75
2023/06/15 14:05:31;;;;;;;9.43;7.50;;;31.80;35.30;;;;;;4936163;29;20027;-75
2023/06/15 14:07:57;;;;;;;9.40;7.35;;;31.80;34.00;;;;;;4938824;29;20031;-75
2023/06/15 14:10:23;;;;;;;8.00;7.20;;;31.90;35.10;;;;;;4921180;29;20053;-75
2023/06/15 14:12:49;;;;;;;9.18;7.03;;;31.90;34.40;;;;;;4939244;29;20024;-76
2023/06/15 14:15:15;;;;;;;8.88;7.20;;;32.00;35.00;;;;;;4938526;29;20019;-75
2023/06/15 14:17:41;;;;;;;8.80;7.43;;;32.10;34.20;;;;;;4929909;29;20031;-76
2023/06/15 14:20:08;;;;;;;8.70;7.80;;;32.20;33.20;;;;;;4930429;29;20032;-76
2023/06/15 14:22:33;;;;;;;8.15;7.03;;;32.00;33.90;;;;;;4938467;29;20023;-75
2023/06/15 14:24:59;;;;;;;9.32;6.93;;;31.90;34.30;;;;;;4938798;29;20019;-75
2023/06/15 14:27:25;;;;;;;9.50;7.03;;;31.80;34.20;;;;;;4939235;29;20034;-76
2023/06/15 14:29:50;;;;;;;8.82;7.43;;;31.80;35.60;;;;;;4931253;29;20034;-76
2023/06/15 14:32:16;;;;;;;8.80;7.50;;;31.80;35.80;;;;;;4912744;29;20059;-75
2023/06/15 14:34:44;;;;;;;11.57;8.05;;;31.80;34.60;;;;;;4932621;29;20115;-76
2023/06/15 14:37:11;;;;;;;8.32;7.43;;;31.60;34.20;;;;;;4938770;29;20027;-75
2023/06/15 14:39:36;;;;;;;9.70;7.75;;;31.60;34.10;;;;;;4937676;29;20087;-75
2023/06/15 14:42:02;;;;;;;9.07;7.55;;;31.80;33.40;;;;;;4937698;29;20035;-76
2023/06/15 14:44:28;;;;;;;10.23;7.18;;;31.90;34.80;;;;;;4940943;29;20025;-76
2023/06/15 14:46:53;;;;;;;8.30;6.95;;;31.90;35.00;;;;;;4936123;29;20028;-76
2023/06/15 14:49:19;;;;;;;9.60;7.28;;;32.00;34.80;;;;;;4938219;29;20035;-75
2023/06/15 14:51:45;;;;;;;8.40;7.20;;;32.10;34.60;;;;;;4921311;29;20023;-76
2023/06/15 14:54:10;;;;;;;9.75;7.95;;;32.20;34.30;;;;;;4937919;29;20047;-76
2023/06/15 14:56:38;;;;;;;9.85;7.43;;;32.00;33.40;;;;;;4939301;29;20513;-76
2023/06/15 14:59:06;;;;;;;9.90;7.70;;;31.80;34.60;;;;;;4937676;29;20028;-76
2023/06/15 15:01:31;;;;;;;10.95;7.25;;;31.80;33.70;;;;;;4939445;29;20038;-76
2023/06/15 15:03:57;;;;;;;10.18;7.50;;;31.90;34.80;;;;;;4937127;29;20039;-76
2023/06/15 15:06:23;;;;;;;9.10;7.57;;;31.60;35.70;;;;;;4939563;29;20070;-76
2023/06/15 15:08:53;;;;;;;9.93;7.25;;;31.40;35.20;;;;;;4936928;29;20028;-75
2023/06/15 15:11:20;;;;;;;10.45;7.43;;;31.40;35.20;;;;;;4937199;29;20020;-76
2023/06/15 15:13:45;;;;;;;10.38;7.57;;;31.50;34.60;;;;;;4938398;29;20031;-75
2023/06/15 15:16:11;;;;;;;11.27;7.88;;;31.50;33.60;;;;;;4936794;29;20458;-75
2023/06/15 15:18:38;;;;;;;8.90;7.65;;;31.50;33.90;;;;;;4938347;29;20040;-76
2023/06/15 15:21:04;;;;;;;10.52;8.00;;;31.50;34.50;;;;;;4936864;29;20032;-76
2023/06/15 15:23:30;;;;;;;9.23;7.75;;;31.70;34.20;;;;;;4937124;29;20376;-75
2023/06/15 15:25:57;;;;;;;12.05;7.78;;;31.80;35.10;;;;;;4937704;29;20038;-76
2023/06/15 15:28:31;;;;;;;9.50;7.82;;;31.80;34.40;;;;;;4936589;29;20482;-76
2023/06/15 15:30:57;;;;;;;9.40;7.55;;;31.90;33.90;;;;;;4937896;29;20143;-75
2023/06/15 15:33:23;;;;;;;9.13;7.45;;;31.90;34.30;;;;;;4934242;29;20059;-75
2023/06/15 15:35:49;;;;;;;10.25;6.95;;;31.80;33.10;;;;;;4934648;29;20015;-75
2023/06/15 15:38:14;;;;;;;10.23;7.60;;;31.70;34.30;;;;;;4937989;29;20028;-75
2023/06/15 15:40:40;;;;;;;9.98;7.22;;;31.60;33.90;;;;;;4919373;29;20031;-75
2023/06/15 15:43:06;;;;;;;9.68;7.32;;;31.50;34.50;;;;;;4937288;29;20085;-75
2023/06/15 15:45:35;;;;;;;7.63;6.93;;;31.30;35.10;;;;;;4937873;29;20024;-76
2023/06/15 15:48:01;;;;;;;8.13;6.93;;;31.20;36.70;;;;;;4935929;29;20174;-76
2023/06/15 15:50:27;;;;;;;8.50;6.70;;;31.00;37.50;;;;;;4936178;29;20051;-75
2023/06/15 15:52:52;;;;;;;8.23;6.75;;;31.00;38.50;;;;;;4937743;29;20040;-75
2023/06/15 15:55:18;;;;;;;7.93;7.10;;;30.90;38.60;;;;;;4936034;29;20035;-75
2023/06/15 15:57:44;;;;;;;9.93;6.65;;;30.90;39.40;;;;;;4937830;29;20024;-75
2023/06/15 16:00:11;;;;;;;7.25;6.25;;;30.80;39.90;;;;;;4935871;29;20747;-75
2023/06/15 16:02:37;;;;;;;11.10;6.75;;;30.90;38.10;;;;;;4935550;29;20035;-76
2023/06/15 16:05:07;;;;;;;8.63;6.50;;;31.00;38.80;;;;;;4924633;29;20394;-79
2023/06/15 16:07:40;;;;;;;9.52;6.47;;;31.20;38.40;;;;;;4920491;29;20027;-76
2023/06/15 16:10:06;;;;;;;9.02;6.15;;;31.30;39.00;;;;;;4936426;29;20092;-75
2023/06/15 16:12:32;;;;;;;9.75;6.63;;;31.40;38.40;;;;;;4940850;29;20016;-77
2023/06/15 16:14:58;;;;;;;8.93;6.07;;;31.50;38.10;;;;;;4941217;29;20031;-78
2023/06/15 16:17:23;;;;;;;6.78;6.00;;;31.40;37.70;;;;;;4939199;29;20028;-78
2023/06/15 16:19:49;;;;;;;7.85;5.82;;;31.30;37.20;;;;;;4940942;29;20032;-78
2023/06/15 16:22:15;;;;;;;7.60;6.32;;;31.40;37.90;;;;;;4941135;29;20042;-78
2023/06/15 16:24:40;;;;;;;7.47;6.18;;;31.30;37.90;;;;;;4919255;29;20028;-78
2023/06/15 16:27:07;;;;;;;8.77;5.90;;;31.10;37.40;;;;;;4941047;29;20035;-78
2023/06/15 16:29:33;;;;;;;9.75;6.10;;;31.00;38.20;;;;;;4938291;29;20028;-78
2023/06/15 16:31:58;;;;;;;7.78;6.45;;;31.00;37.90;;;;;;4940464;29;20058;-78
2023/06/15 16:34:24;;;;;;;7.28;5.60;;;31.00;38.80;;;;;;4940041;29;20517;-78
2023/06/15 16:36:50;;;;;;;8.95;5.90;;;31.00;38.90;;;;;;4939918;29;20030;-77
2023/06/15 16:39:44;;;;;;;8.35;5.75;;;31.10;38.90;;;;;;4930571;29;20048;-78
2023/06/15 16:42:10;;;;;;;8.35;5.93;;;30.90;37.60;;;;;;4942425;29;20032;-78
2023/06/15 16:44:36;;;;;;;10.48;5.90;;;30.80;38.00;;;;;;4938874;29;20391;-75
2023/06/15 16:47:02;;;;;;;7.57;5.90;;;30.70;37.90;;;;;;4923292;29;20051;-75
2023/06/15 16:49:28;;;;;;;8.45;5.63;;;30.60;37.60;;;;;;4929819;29;20600;-78
2023/06/15 16:51:54;;;;;;;8.82;5.55;;;30.50;38.30;;;;;;4931941;29;20024;-77
2023/06/15 16:54:20;;;;;;;9.40;5.97;;;30.50;39.00;;;;;;4940108;29;20055;-77
2023/06/15 16:56:45;;;;;;;7.03;5.63;;;30.40;39.30;;;;;;4940537;29;20023;-77
2023/06/15 16:59:11;;;;;;;7.93;6.10;;;30.40;39.10;;;;;;4942138;29;20059;-76
2023/06/15 17:01:37;;;;;;;11.85;6.13;;;30.30;38.80;;;;;;4925246;29;20581;-78
2023/06/15 17:04:03;;;;;;;7.75;5.57;;;30.30;38.50;;;;;;4937106;29;20127;-76
2023/06/15 17:06:29;;;;;;;7.82;5.82;;;30.30;38.50;;;;;;4936534;29;20521;-76
2023/06/15 17:08:55;;;;;;;7.45;5.55;;;30.10;37.70;;;;;;4939970;29;20059;-77